Etusivu
METAR-TAF:

METAR-TAF

Lentoasemat :

Sotilaslentoasema

Tafraoui, Algeria

Leveyspiiri: 35-32-33N, Pituuspiiri: 000-31-56W, korkeus merenpinnasta: 112 m

Tämänhetkinen sää

Tämä raportti tehtiin 1 tunti ja 6 minuuttia sitten, kello 19.00 UTC
Tuuli 4 kn pohjoisen/luoteesta
Lämpötila 26°C
Kosteus 61%
Ilmanpaine 1014 hPa
Näkyvyys: 7000 m
Muutamia pilviä 2600 ft:n korkeudessa

METAR: DAOL 261900Z 34004KT 7000 FEW026 26/18 Q1014

Aika: 21:06 (20:06 UTC)


TAF: puuttuu

Säähavainnot ja -ennusteet yli 4000 lentoasemalta (METAR- ja TAF-raportit).

Käytössä olevat sääasemat on merkitty karttaan keltaisilla ja punaisilla pisteillä.

Aseta hiiri pisteen päälle nähdäksesi sääaseman nimen.

Klikkaa sitten nähdäksesi säähavainnot ja -ennusteet.

Kartan vaihtaminen: klikkaa mustalla rastilla varustettuja vihreitä pisteitä, niin voit zoomata sisään; viivalla varustettua vihreää pistettä, niin voit zoomata ulos tai vihreitä nuolia, niin pääset viereisille kartoille.


METAR-TAF: